This is the latest recevied weather packets stored in our database for station/object KD8OZS. If no packets are shown the sender has not sent any weather packets the latest 10 day(s).
| Time | Temp. | Humidity | Pressure | Rain* | Wind** | Luminosity | Snow |
|---|---|---|---|---|---|---|---|
| 1787440254 | 20° C | 96% | 1003.2 hPa | 0 mm | - | 57 W/m² | - |
| 1787439950 | 20° C | 96% | 1003.2 hPa | 0 mm | - | 55 W/m² | - |
| 1787439646 | 20° C | 96% | 1003.2 hPa | 0 mm | - | 69 W/m² | - |
| 1787439342 | 20° C | 96% | 1003.3 hPa | 0 mm | - | 57 W/m² | - |
| 1787439037 | 20° C | 96% | 1003.1 hPa | 0 mm | - | 67 W/m² | - |
| 1787438732 | 20.56° C | 96% | 1003.1 hPa | 0 mm | - | 111 W/m² | - |
| 1787438432 | 20° C | 96% | 1003 hPa | 0 mm | - | 75 W/m² | - |
| 1787438126 | 20.56° C | 95% | 1002.9 hPa | 6.1 mm | - | 55 W/m² | - |
| 1787437822 | 20.56° C | 94% | 1003.2 hPa | 19.81 mm | - | 29 W/m² | - |
| 1787437519 | 21.11° C | 92% | 1003.3 hPa | 22.86 mm | - | 19 W/m² | - |
| 1787437215 | 23.33° C | 88% | 1003 hPa | 7.11 mm | - | 10 W/m² | - |
| 1787436911 | 23.33° C | 88% | 1002 hPa | 0 mm | - | 45 W/m² | - |
| 1787436607 | 23.33° C | 86% | 1002.1 hPa | 0 mm | - | 60 W/m² | - |
| 1787436307 | 23.89° C | 88% | 1001.6 hPa | 0 mm | - | 101 W/m² | - |
| 1787436002 | 23.89° C | 85% | 1001.7 hPa | 0 mm | - | 137 W/m² | - |
| 1787435697 | 23.89° C | 85% | 1001.8 hPa | 0 mm | - | 157 W/m² | - |
| 1787435393 | 23.89° C | 85% | 1001.9 hPa | 0 mm | - | 146 W/m² | - |
| 1787435089 | 24.44° C | 85% | 1002.2 hPa | 0 mm | - | 89 W/m² | - |
| 1787434785 | 25° C | 83% | 1001.9 hPa | 0 mm | - | 84 W/m² | - |
| 1787434482 | 25.56° C | 84% | 1002.1 hPa | 0 mm | - | 133 W/m² | - |
| 1787434177 | 25.56° C | 79% | 1002.1 hPa | 0 mm | - | 164 W/m² | - |
| 1787433873 | 25.56° C | 79% | 1002.4 hPa | 0 mm | - | 213 W/m² | - |
| 1787433567 | 25.56° C | 80% | 1002.3 hPa | 0 mm | - | 222 W/m² | - |
| 1787433263 | 25.56° C | 78% | 1002.1 hPa | 0 mm | - | 246 W/m² | - |
| 1787432960 | 25° C | 82% | 1002.2 hPa | 0 mm | - | 290 W/m² | - |
* Rain latest hour (hover to see other rain measurements)
** Current wind speed in m/s (hover to see current wind gust speed)